Time;durP1;ratioP1;P1;durP2;ratioP2;P2;SDS_P1;SDS_P2;PMS_P1;PMS_P2;Temp;Humidity;BMP_temperature;BMP_pressure;BME280_temperature;BME280_humidity;BME280_pressure;Samples;Min_cycle;Max_cycle;Signal;HPM_P1;HPM_P2
2024/02/01 00:07:22;1020068.00;3.40;1768.05;190954.00;0.64;330.35;;;;;12.10;1.00;;;;;;2265753;61;1436;-88
2024/02/01 00:27:41;681805.00;2.27;1175.70;50054.00;0.17;87.28;;;;;12.90;1.00;;;;;;2266419;61;1306;-90
2024/02/01 00:47:51;373147.00;1.24;643.65;0.00;0.00;0.62;;;;;12.90;1.00;;;;;;2270204;61;1052;-92
2024/02/01 01:10:26;552014.00;1.84;951.43;0.00;0.00;0.62;;;;;13.40;1.00;;;;;;2271954;61;1037;-92
2024/02/01 01:15:31;288252.00;0.96;497.72;0.00;0.00;0.62;;;;;13.20;1.00;;;;;;2271644;61;1330;-91
2024/02/01 01:17:58;36039.00;0.12;63.03;0.00;0.00;0.62;;;;;13.20;1.00;;;;;;2270021;61;1551;-90
2024/02/01 01:20:28;304708.00;1.02;526.01;148.00;0.00;0.88;;;;;13.40;1.00;;;;;;2270027;61;1596;-91
2024/02/01 03:40:38;496006.00;1.65;854.95;0.00;0.00;0.62;;;;;13.20;1.00;;;;;;2407175;40;3581;-89
2024/02/01 04:13:09;246094.00;0.82;425.23;0.00;0.00;0.62;;;;;12.60;1.00;;;;;;2274482;61;1333;-88
2024/02/01 04:20:38;552314.00;1.84;951.95;87484.00;0.29;151.96;;;;;12.90;1.00;;;;;;2270833;61;1028;-90
2024/02/01 05:52:59;313023.00;1.04;540.31;28321.00;0.09;49.68;;;;;12.80;1.00;;;;;;2402844;40;3615;-88
2024/02/01 06:00:23;199640.00;0.67;345.30;0.00;0.00;0.62;;;;;12.40;1.00;;;;;;2315463;41;3601;-87
2024/02/01 06:40:26;196631.00;0.66;340.12;0.00;0.00;0.62;;;;;12.70;1.00;;;;;;2269772;61;1338;-90
2024/02/01 06:50:34;272347.00;0.91;470.38;0.00;0.00;0.62;;;;;12.50;1.00;;;;;;2266417;61;1404;-87
2024/02/01 06:53:08;37839.00;0.13;66.15;0.00;0.00;0.62;;;;;12.70;1.00;;;;;;2264532;61;1833;-90
2024/02/01 06:55:43;85106.00;0.28;147.86;18460.00;0.06;32.60;;;;;13.00;1.00;;;;;;2264305;61;1285;-88
2024/02/01 06:58:15;91581.00;0.31;159.04;0.00;0.00;0.62;;;;;12.80;1.00;;;;;;2264595;61;1078;-88
2024/02/01 07:01:01;79251.00;0.26;137.74;0.00;0.00;0.62;;;;;12.90;1.00;;;;;;2264456;61;1680;-88
2024/02/01 07:03:51;118281.00;0.39;205.12;0.00;0.00;0.62;;;;;13.10;1.00;;;;;;2264382;61;2019;-88
2024/02/01 07:06:39;13120.00;0.04;23.35;0.00;0.00;0.62;;;;;13.50;1.00;;;;;;2264487;61;2407;-86
2024/02/01 07:09:27;18321.00;0.06;32.36;0.00;0.00;0.62;;;;;13.60;1.00;;;;;;2264419;61;1632;-88
2024/02/01 07:12:15;36496.00;0.12;63.83;0.00;0.00;0.62;;;;;13.50;1.00;;;;;;2264388;61;1344;-88
2024/02/01 07:14:45;77511.00;0.26;134.74;0.00;0.00;0.62;;;;;13.50;1.00;;;;;;2264418;61;1444;-88
2024/02/01 07:17:28;158272.00;0.53;274.06;7262.00;0.02;13.21;;;;;13.10;1.00;;;;;;2264516;61;1141;-89
2024/02/01 07:19:56;50488.00;0.17;88.03;0.00;0.00;0.62;;;;;13.00;1.00;;;;;;2264525;61;1094;-89
2024/02/01 07:22:39;519.00;0.00;1.52;0.00;0.00;0.62;;;;;13.20;1.00;;;;;;2264335;61;1920;-89
2024/02/01 07:25:10;23360.00;0.08;41.09;0.00;0.00;0.62;;;;;13.30;1.00;;;;;;2264443;61;1757;-89
2024/02/01 07:57:55;204223.00;0.68;353.19;32564.00;0.11;57.02;;;;;12.20;1.00;;;;;;2260341;61;728;-86
2024/02/01 08:00:33;27667.00;0.09;48.54;0.00;0.00;0.62;;;;;12.40;1.00;;;;;;2260360;61;1224;-88
2024/02/01 08:08:51;161698.00;0.54;279.96;24125.00;0.08;42.41;;;;;12.70;1.00;;;;;;2312276;41;3652;-88
2024/02/01 08:11:18;187112.00;0.62;323.74;40137.00;0.13;70.13;;;;;12.70;1.00;;;;;;2272457;61;1471;-86
2024/02/01 08:13:48;121130.00;0.40;210.03;0.00;0.00;0.62;;;;;13.00;1.00;;;;;;2272595;61;1234;-87
2024/02/01 08:16:18;51872.00;0.17;90.42;0.00;0.00;0.62;;;;;13.00;1.00;;;;;;2272498;61;1094;-86
2024/02/01 08:18:45;119819.00;0.40;207.77;0.00;0.00;0.62;;;;;12.80;1.00;;;;;;2272534;61;1079;-86
2024/02/01 08:21:16;432830.00;1.44;746.25;65689.00;0.22;114.31;;;;;12.90;1.00;;;;;;2272485;61;1021;-88
2024/02/01 08:23:44;154961.00;0.52;268.36;0.00;0.00;0.62;;;;;12.80;1.00;;;;;;2272451;61;2026;-88
2024/02/01 08:26:16;0.00;0.00;0.62;0.00;0.00;0.62;;;;;12.70;1.00;;;;;;2272466;61;978;-88
2024/02/01 08:28:43;133383.00;0.44;231.16;0.00;0.00;0.62;;;;;12.70;1.00;;;;;;2272548;61;996;-88
2024/02/01 08:31:14;0.00;0.00;0.62;0.00;0.00;0.62;;;;;12.50;1.00;;;;;;2272492;61;948;-88
2024/02/01 08:33:44;89666.00;0.30;155.73;0.00;0.00;0.62;;;;;12.50;1.00;;;;;;2272425;61;1368;-87
2024/02/01 08:36:12;10251.00;0.03;18.38;0.00;0.00;0.62;;;;;12.40;1.00;;;;;;2272507;61;1079;-87
2024/02/01 08:38:39;37485.00;0.12;65.54;0.00;0.00;0.62;;;;;12.30;1.00;;;;;;2272488;61;1038;-86
2024/02/01 08:41:06;48576.00;0.16;84.72;0.00;0.00;0.62;;;;;12.30;1.00;;;;;;2272538;61;1091;-87
2024/02/01 08:43:38;69832.00;0.23;121.47;0.00;0.00;0.62;;;;;12.40;1.00;;;;;;2272485;61;2008;-87
2024/02/01 08:46:05;251065.00;0.84;433.78;16250.00;0.05;28.78;;;;;12.40;1.00;;;;;;2272503;61;1069;-87
2024/02/01 08:48:32;291493.00;0.97;503.30;0.00;0.00;0.62;;;;;12.30;1.00;;;;;;2272439;61;1111;-87
2024/02/01 08:51:00;27905.00;0.09;48.96;0.00;0.00;0.62;;;;;12.30;1.00;;;;;;2272460;61;1035;-87
2024/02/01 08:53:27;105034.00;0.35;182.26;0.00;0.00;0.62;;;;;12.30;1.00;;;;;;2272399;61;2245;-87
2024/02/01 08:55:54;64168.00;0.21;111.68;0.00;0.00;0.62;;;;;12.30;1.00;;;;;;2272497;61;914;-87
2024/02/01 08:58:21;176139.00;0.59;304.84;0.00;0.00;0.62;;;;;12.40;1.00;;;;;;2272434;61;1584;-86
2024/02/01 09:00:49;127599.00;0.43;221.19;22800.00;0.08;40.12;;;;;12.50;1.00;;;;;;2272423;61;1083;-87
2024/02/01 09:03:16;0.00;0.00;0.62;0.00;0.00;0.62;;;;;12.60;1.00;;;;;;2272352;61;1911;-87
2024/02/01 09:05:45;66145.00;0.22;115.10;0.00;0.00;0.62;;;;;12.30;1.00;;;;;;2272402;61;1033;-86
2024/02/01 09:08:15;27141.00;0.09;47.63;0.00;0.00;0.62;;;;;12.10;1.00;;;;;;2272333;61;1042;-88
2024/02/01 09:10:50;161670.00;0.54;279.92;0.00;0.00;0.62;;;;;11.90;1.90;;;;;;2272805;61;1545;-87
2024/02/01 09:13:18;41171.00;0.14;71.91;0.00;0.00;0.62;;;;;11.70;3.10;;;;;;2273083;61;1407;-87
2024/02/01 09:15:44;149706.00;0.50;259.30;0.00;0.00;0.62;;;;;11.70;3.60;;;;;;2273156;61;1016;-87
2024/02/01 09:18:11;0.00;0.00;0.62;0.00;0.00;0.62;;;;;11.80;3.00;;;;;;2273128;61;1024;-87
2024/02/01 09:20:38;59000.00;0.20;102.75;0.00;0.00;0.62;;;;;11.70;3.70;;;;;;2273097;61;1743;-88
2024/02/01 09:23:06;29628.00;0.10;51.94;0.00;0.00;0.62;;;;;11.80;3.70;;;;;;2273028;61;1915;-88
2024/02/01 09:25:34;53879.00;0.18;93.89;0.00;0.00;0.62;;;;;11.70;3.80;;;;;;2273090;61;914;-86
2024/02/01 09:28:11;244351.00;0.81;422.24;5984.00;0.02;10.99;;;;;11.80;4.60;;;;;;2272993;61;962;-87
2024/02/01 09:30:45;197535.00;0.66;341.68;55347.00;0.18;96.43;;;;;12.00;4.60;;;;;;2273077;61;1125;-86
2024/02/01 09:33:12;0.00;0.00;0.62;0.00;0.00;0.62;;;;;12.10;3.70;;;;;;2273021;61;1480;-86
2024/02/01 09:35:38;0.00;0.00;0.62;0.00;0.00;0.62;;;;;12.30;2.70;;;;;;2272999;61;1019;-86
2024/02/01 09:38:05;47151.00;0.16;82.26;0.00;0.00;0.62;;;;;12.50;2.20;;;;;;2273030;61;1099;-86
2024/02/01 09:40:41;128932.00;0.43;223.49;62361.00;0.21;108.56;;;;;12.50;1.80;;;;;;2272947;61;1450;-86
2024/02/01 09:43:17;280314.00;0.93;484.08;42782.00;0.14;74.70;;;;;12.70;1.00;;;;;;2272950;61;1919;-85
2024/02/01 09:45:44;256132.00;0.85;442.50;95527.00;0.32;165.85;;;;;12.60;1.00;;;;;;2273043;61;1592;-87
2024/02/01 09:48:15;257913.00;0.86;445.56;11679.00;0.04;20.86;;;;;12.60;1.00;;;;;;2272954;61;1548;-88
2024/02/01 09:50:48;7988.00;0.03;14.46;0.00;0.00;0.62;;;;;12.70;1.50;;;;;;2273050;61;1284;-87
2024/02/01 09:53:15;449946.00;1.50;775.69;29258.00;0.10;51.30;;;;;12.90;1.00;;;;;;2272940;61;1592;-87
2024/02/01 09:55:44;29343.00;0.10;51.45;0.00;0.00;0.62;;;;;12.80;1.00;;;;;;2272984;61;1110;-87
2024/02/01 09:58:11;0.00;0.00;0.62;0.00;0.00;0.62;;;;;12.80;1.00;;;;;;2272917;61;956;-87
2024/02/01 10:00:39;0.00;0.00;0.62;0.00;0.00;0.62;;;;;12.30;1.90;;;;;;2273000;61;1068;-86
2024/02/01 10:03:07;88464.00;0.29;153.66;15293.00;0.05;27.12;;;;;12.30;2.40;;;;;;2272898;61;1914;-87
2024/02/01 10:05:35;91324.00;0.30;158.59;0.00;0.00;0.62;;;;;12.20;1.90;;;;;;2272991;61;994;-86
2024/02/01 10:08:10;195416.00;0.65;338.03;17222.00;0.06;30.46;;;;;12.20;3.00;;;;;;2272898;61;1086;-87
2024/02/01 10:10:38;254938.00;0.85;440.44;121616.00;0.41;210.87;;;;;12.30;2.20;;;;;;2272931;61;1099;-87
2024/02/01 10:13:07;0.00;0.00;0.62;0.00;0.00;0.62;;;;;12.40;1.90;;;;;;2272874;61;1719;-87
2024/02/01 10:15:36;78399.00;0.26;136.27;0.00;0.00;0.62;;;;;12.50;1.00;;;;;;2272933;61;1126;-87
2024/02/01 10:18:06;110637.00;0.37;191.93;0.00;0.00;0.62;;;;;12.80;1.00;;;;;;2270642;61;1734;-89
2024/02/01 10:20:39;101666.00;0.34;176.45;0.00;0.00;0.62;;;;;12.80;1.00;;;;;;2268828;61;1149;-87
2024/02/01 10:23:07;109705.00;0.37;190.32;1333.00;0.00;2.93;;;;;13.00;1.00;;;;;;2268690;61;2004;-88
2024/02/01 10:25:38;32719.00;0.11;57.29;0.00;0.00;0.62;;;;;13.20;1.00;;;;;;2268862;61;1099;-87
2024/02/01 10:28:08;5108.00;0.02;9.47;0.00;0.00;0.62;;;;;12.90;1.00;;;;;;2268766;61;1062;-86
2024/02/01 10:30:39;73424.00;0.24;127.68;3404.00;0.01;6.52;;;;;12.40;2.00;;;;;;2268714;61;1098;-87
2024/02/01 10:33:07;7105.00;0.02;12.93;0.00;0.00;0.62;;;;;12.10;3.00;;;;;;2268761;61;1434;-87
2024/02/01 10:35:35;8956.00;0.03;16.14;0.00;0.00;0.62;;;;;12.40;3.40;;;;;;2268788;61;1073;-87
2024/02/01 10:38:11;221877.00;0.74;383.57;30267.00;0.10;53.05;;;;;12.80;1.00;;;;;;2268814;61;1056;-87
2024/02/01 10:40:45;72361.00;0.24;125.84;0.00;0.00;0.62;;;;;13.10;1.10;;;;;;2268758;61;1430;-89
2024/02/01 10:43:18;83853.00;0.28;145.69;0.00;0.00;0.62;;;;;13.50;1.00;;;;;;2268745;61;2010;-89
2024/02/01 10:45:50;52304.00;0.17;91.17;0.00;0.00;0.62;;;;;13.40;1.00;;;;;;2268768;61;1581;-86
2024/02/01 10:48:19;4589.00;0.02;8.57;0.00;0.00;0.62;;;;;13.60;1.00;;;;;;2268760;61;1738;-87
2024/02/01 10:50:47;53391.00;0.18;93.05;0.00;0.00;0.62;;;;;13.60;1.00;;;;;;2268729;61;1108;-86
2024/02/01 10:53:16;38581.00;0.13;67.43;0.00;0.00;0.62;;;;;13.50;1.00;;;;;;2268612;61;1290;-87
2024/02/01 10:55:48;75124.00;0.25;130.61;0.00;0.00;0.62;;;;;13.50;1.00;;;;;;2268675;61;1103;-88
2024/02/01 10:58:19;24803.00;0.08;43.59;0.00;0.00;0.62;;;;;13.80;1.00;;;;;;2268751;61;1167;-86
2024/02/01 11:00:47;0.00;0.00;0.62;0.00;0.00;0.62;;;;;13.60;1.00;;;;;;2268708;61;1733;-86
2024/02/01 11:03:16;28044.00;0.09;49.20;0.00;0.00;0.62;;;;;13.20;1.00;;;;;;2268648;61;2002;-86
2024/02/01 11:05:44;0.00;0.00;0.62;0.00;0.00;0.62;;;;;13.10;1.00;;;;;;2268641;61;1292;-88
2024/02/01 11:08:17;0.00;0.00;0.62;0.00;0.00;0.62;;;;;13.00;1.00;;;;;;2268593;61;1226;-87
2024/02/01 11:10:59;8955.00;0.03;16.14;0.00;0.00;0.62;;;;;13.10;1.00;;;;;;2268684;61;1051;-87
2024/02/01 11:13:31;51677.00;0.17;90.09;0.00;0.00;0.62;;;;;13.00;1.00;;;;;;2268652;61;1423;-86
2024/02/01 11:15:58;0.00;0.00;0.62;0.00;0.00;0.62;;;;;13.00;1.00;;;;;;2268508;61;1013;-87
2024/02/01 11:18:27;91878.00;0.31;159.55;24427.00;0.08;42.94;;;;;12.90;1.10;;;;;;2268512;61;1616;-88
2024/02/01 11:20:58;5107.00;0.02;9.47;0.00;0.00;0.62;;;;;13.10;1.00;;;;;;2268617;61;1026;-87
2024/02/01 11:23:25;97280.00;0.32;168.88;0.00;0.00;0.62;;;;;13.20;1.00;;;;;;2268606;61;1920;-88
2024/02/01 11:25:58;0.00;0.00;0.62;0.00;0.00;0.62;;;;;13.30;1.00;;;;;;2268677;61;1119;-88
2024/02/01 11:28:30;97265.00;0.32;168.85;21466.00;0.07;37.81;;;;;13.30;1.00;;;;;;2268627;61;949;-87
2024/02/01 11:31:01;25482.00;0.08;44.76;0.00;0.00;0.62;;;;;13.10;1.00;;;;;;2268532;61;1206;-88
2024/02/01 11:33:29;21161.00;0.07;37.28;0.00;0.00;0.62;;;;;12.90;1.00;;;;;;2268546;61;1474;-87
2024/02/01 11:35:57;50750.00;0.17;88.48;0.00;0.00;0.62;;;;;12.70;1.00;;;;;;2268537;61;1075;-87
2024/02/01 11:38:25;39780.00;0.13;69.51;0.00;0.00;0.62;;;;;12.50;2.60;;;;;;2268589;61;976;-87
2024/02/01 11:43:25;32396.00;0.11;56.73;0.00;0.00;0.62;;;;;13.00;1.00;;;;;;2266228;61;1973;-89
2024/02/01 11:45:57;30574.00;0.10;53.58;0.00;0.00;0.62;;;;;13.10;1.00;;;;;;2264555;61;943;-87
2024/02/01 11:50:59;122003.00;0.41;211.54;55363.00;0.18;96.46;;;;;12.90;1.00;;;;;;2116330;40;3333;-88
2024/02/01 11:53:27;82931.00;0.28;144.10;0.00;0.00;0.62;;;;;13.00;1.10;;;;;;2272619;61;1404;-86
2024/02/01 11:55:55;0.00;0.00;0.62;0.00;0.00;0.62;;;;;13.30;1.00;;;;;;2272587;61;1110;-86
2024/02/01 11:58:24;0.00;0.00;0.62;0.00;0.00;0.62;;;;;13.00;1.00;;;;;;2272308;61;1728;-88
2024/02/01 12:00:55;14937.00;0.05;26.50;0.00;0.00;0.62;;;;;13.10;1.30;;;;;;2272465;61;1750;-87
2024/02/01 12:03:22;12129.00;0.04;21.64;0.00;0.00;0.62;;;;;13.30;1.00;;;;;;2272520;61;2004;-87
2024/02/01 12:05:52;12121.00;0.04;21.62;0.00;0.00;0.62;;;;;13.10;1.10;;;;;;2272498;61;1052;-87
2024/02/01 12:08:21;0.00;0.00;0.62;0.00;0.00;0.62;;;;;13.00;1.10;;;;;;2272522;61;1176;-85
2024/02/01 12:10:49;67522.00;0.23;117.48;0.00;0.00;0.62;;;;;13.20;1.20;;;;;;2272492;61;1615;-86
2024/02/01 12:13:16;0.00;0.00;0.62;0.00;0.00;0.62;;;;;13.10;1.00;;;;;;2272492;61;1397;-87
2024/02/01 12:15:44;8499.00;0.03;15.35;0.00;0.00;0.62;;;;;13.00;1.00;;;;;;2272449;61;2110;-87
2024/02/01 12:18:13;0.00;0.00;0.62;0.00;0.00;0.62;;;;;12.90;1.00;;;;;;2272444;61;1150;-87
2024/02/01 12:20:42;0.00;0.00;0.62;0.00;0.00;0.62;;;;;13.20;1.20;;;;;;2272342;61;1709;-86
2024/02/01 12:23:09;0.00;0.00;0.62;0.00;0.00;0.62;;;;;13.60;1.00;;;;;;2272499;61;1919;-88
2024/02/01 12:25:36;17673.00;0.06;31.24;0.00;0.00;0.62;;;;;13.80;1.00;;;;;;2272513;61;1114;-88
2024/02/01 12:28:09;42520.00;0.14;74.25;0.00;0.00;0.62;;;;;13.90;1.00;;;;;;2272468;61;985;-89
2024/02/01 12:30:37;74731.00;0.25;129.93;0.00;0.00;0.62;;;;;13.60;1.00;;;;;;2272468;61;1055;-89
2024/02/01 12:33:11;7030.00;0.02;12.80;0.00;0.00;0.62;;;;;13.40;1.00;;;;;;2272515;61;1281;-88
2024/02/01 12:35:41;0.00;0.00;0.62;0.00;0.00;0.62;;;;;13.50;1.00;;;;;;2272463;61;1150;-88
2024/02/01 12:38:08;0.00;0.00;0.62;0.00;0.00;0.62;;;;;13.70;1.00;;;;;;2272400;61;1143;-87
2024/02/01 12:40:35;44776.00;0.15;78.15;0.00;0.00;0.62;;;;;13.80;1.00;;;;;;2272388;61;2382;-87
2024/02/01 12:43:04;0.00;0.00;0.62;0.00;0.00;0.62;;;;;13.90;1.00;;;;;;2272488;61;1925;-87
2024/02/01 12:45:32;23735.00;0.08;41.74;0.00;0.00;0.62;;;;;13.60;1.00;;;;;;2272298;61;1112;-88
2024/02/01 12:47:58;0.00;0.00;0.62;0.00;0.00;0.62;;;;;13.80;1.00;;;;;;2272428;61;1110;-87
2024/02/01 12:50:26;0.00;0.00;0.62;0.00;0.00;0.62;;;;;14.00;1.00;;;;;;2272404;61;1019;-90
2024/02/01 12:52:54;100494.00;0.33;174.42;0.00;0.00;0.62;;;;;14.00;1.00;;;;;;2272365;61;1378;-88
2024/02/01 12:55:21;0.00;0.00;0.62;0.00;0.00;0.62;;;;;14.00;1.00;;;;;;2272438;61;1087;-88
2024/02/01 12:57:48;42655.00;0.14;74.48;0.00;0.00;0.62;;;;;14.20;1.00;;;;;;2272423;61;1032;-88
2024/02/01 13:00:16;0.00;0.00;0.62;0.00;0.00;0.62;;;;;14.40;1.00;;;;;;2272320;61;1056;-88
2024/02/01 13:02:44;0.00;0.00;0.62;0.00;0.00;0.62;;;;;14.60;1.00;;;;;;2272293;61;1560;-87
2024/02/01 13:05:11;60844.00;0.20;105.94;0.00;0.00;0.62;;;;;14.40;1.00;;;;;;2272255;61;2017;-89
2024/02/01 13:07:39;0.00;0.00;0.62;0.00;0.00;0.62;;;;;14.50;1.00;;;;;;2272336;61;1013;-88
2024/02/01 13:10:09;16566.00;0.06;29.32;0.00;0.00;0.62;;;;;14.60;1.00;;;;;;2272395;61;1033;-87
2024/02/01 13:12:36;45101.00;0.15;78.71;0.00;0.00;0.62;;;;;14.60;1.00;;;;;;2272314;61;1284;-88
2024/02/01 13:15:05;0.00;0.00;0.62;0.00;0.00;0.62;;;;;14.40;1.00;;;;;;2272398;61;980;-88
2024/02/01 13:17:35;391110.00;1.30;674.52;72940.00;0.24;126.84;;;;;14.20;1.00;;;;;;2272314;61;2046;-88
2024/02/01 13:20:18;4664.00;0.02;8.70;0.00;0.00;0.62;;;;;14.10;1.00;;;;;;2272230;61;985;-90
2024/02/01 13:22:45;5966.00;0.02;10.96;0.00;0.00;0.62;;;;;14.00;1.00;;;;;;2272264;61;1475;-88
2024/02/01 13:25:18;0.00;0.00;0.62;0.00;0.00;0.62;;;;;13.90;1.00;;;;;;2272251;61;1932;-88
2024/02/01 13:27:46;0.00;0.00;0.62;0.00;0.00;0.62;;;;;14.00;1.00;;;;;;2272274;61;1152;-88
2024/02/01 13:30:13;95644.00;0.32;166.05;21953.00;0.07;38.65;;;;;14.30;1.00;;;;;;2272282;61;1241;-88
2024/02/01 13:32:40;0.00;0.00;0.62;0.00;0.00;0.62;;;;;14.30;1.00;;;;;;2272074;61;1479;-87
2024/02/01 13:35:08;0.00;0.00;0.62;0.00;0.00;0.62;;;;;14.30;1.00;;;;;;2272274;61;1099;-87
2024/02/01 13:37:34;12197.00;0.04;21.76;0.00;0.00;0.62;;;;;14.10;1.00;;;;;;2272309;61;1123;-89
2024/02/01 13:40:01;10273.00;0.03;18.42;0.00;0.00;0.62;;;;;13.90;1.00;;;;;;2272288;61;1281;-88
2024/02/01 13:42:32;63392.00;0.21;110.34;0.00;0.00;0.62;;;;;14.00;1.00;;;;;;2272234;61;1414;-89
2024/02/01 13:44:59;48048.00;0.16;83.81;0.00;0.00;0.62;;;;;13.90;1.00;;;;;;2272009;61;1923;-88
2024/02/01 13:47:26;0.00;0.00;0.62;0.00;0.00;0.62;;;;;14.10;1.00;;;;;;2272167;61;1565;-88
2024/02/01 13:49:53;68448.00;0.23;119.08;0.00;0.00;0.62;;;;;14.40;1.00;;;;;;2272006;61;1087;-85
2024/02/01 13:52:19;62007.00;0.21;107.95;0.00;0.00;0.62;;;;;14.50;1.00;;;;;;2272180;61;1451;-89
2024/02/01 13:54:46;24113.00;0.08;42.39;0.00;0.00;0.62;;;;;14.50;1.00;;;;;;2272065;61;1001;-88
2024/02/01 13:57:13;8882.00;0.03;16.01;0.00;0.00;0.62;;;;;14.60;1.00;;;;;;2272712;61;1127;-87
2024/02/01 13:59:42;111482.00;0.37;193.39;0.00;0.00;0.62;;;;;14.60;1.00;;;;;;2272268;61;1049;-89
2024/02/01 14:02:12;101826.00;0.34;176.72;0.00;0.00;0.62;;;;;14.40;1.00;;;;;;2272666;61;1379;-88
2024/02/01 14:04:39;37972.00;0.13;66.38;0.00;0.00;0.62;;;;;13.80;1.00;;;;;;2272669;61;2008;-89
2024/02/01 14:09:35;293381.00;0.98;506.54;91031.00;0.30;158.09;;;;;13.20;1.00;;;;;;2274522;61;1414;-88
2024/02/01 14:12:03;117146.00;0.39;203.16;0.00;0.00;0.62;;;;;13.20;1.00;;;;;;2272675;61;1285;-88
2024/02/01 14:14:30;0.00;0.00;0.62;0.00;0.00;0.62;;;;;13.60;1.00;;;;;;2272599;61;928;-88
2024/02/01 14:16:59;253645.00;0.85;438.22;89841.00;0.30;156.03;;;;;13.40;1.00;;;;;;2272692;61;978;-87
2024/02/01 14:19:28;210315.00;0.70;363.68;74587.00;0.25;129.69;;;;;13.00;1.00;;;;;;2272592;61;1687;-88
2024/02/01 14:21:56;193264.00;0.64;334.33;74364.00;0.25;129.30;;;;;13.10;1.00;;;;;;2272494;61;1798;-87
2024/02/01 14:24:24;228520.00;0.76;395.00;85703.00;0.29;148.89;;;;;13.20;1.00;;;;;;2272494;61;2034;-88
2024/02/01 14:26:52;212032.00;0.71;366.63;91089.00;0.30;158.19;;;;;13.20;1.00;;;;;;2272626;61;1451;-90
2024/02/01 14:29:19;378799.00;1.26;653.36;87864.00;0.29;152.62;;;;;13.30;1.00;;;;;;2272652;61;1112;-87
2024/02/01 14:31:46;220197.00;0.73;380.68;91606.00;0.31;159.08;;;;;13.60;1.00;;;;;;2272608;61;1378;-89
2024/02/01 14:34:15;359273.00;1.20;619.80;81646.00;0.27;141.88;;;;;13.80;1.00;;;;;;2272606;61;1056;-87
2024/02/01 14:36:42;184793.00;0.62;319.74;0.00;0.00;0.62;;;;;13.60;1.00;;;;;;2272542;61;1552;-87
2024/02/01 14:39:21;122501.00;0.41;212.40;0.00;0.00;0.62;;;;;13.00;1.00;;;;;;2272471;61;1409;-87
2024/02/01 14:41:51;403330.00;1.34;695.53;106675.00;0.36;185.09;;;;;12.90;1.00;;;;;;2272489;61;1477;-88
2024/02/01 14:44:18;385604.00;1.29;665.06;80232.00;0.27;139.44;;;;;13.00;1.00;;;;;;2272501;61;2002;-86
2024/02/01 14:46:45;358090.00;1.19;617.77;89845.00;0.30;156.04;;;;;13.20;1.00;;;;;;2272582;61;2049;-87
2024/02/01 14:49:14;264059.00;0.88;456.13;86293.00;0.29;149.91;;;;;13.50;1.00;;;;;;2272512;61;1033;-87
2024/02/01 14:51:41;449867.00;1.50;775.55;100901.00;0.34;175.13;;;;;13.20;1.00;;;;;;2272409;61;1459;-87
2024/02/01 14:54:08;361448.00;1.20;623.54;73419.00;0.24;127.67;;;;;13.40;1.00;;;;;;2272523;61;1653;-88
2024/02/01 14:56:36;365917.00;1.22;631.22;90660.00;0.30;157.45;;;;;13.00;1.00;;;;;;2272562;61;1029;-92
2024/02/01 14:59:04;303190.00;1.01;523.40;85311.00;0.28;148.21;;;;;12.90;1.00;;;;;;2272593;61;914;-88
2024/02/01 15:01:31;390395.00;1.30;673.29;90320.00;0.30;156.86;;;;;12.60;1.00;;;;;;2272265;61;1288;-88
2024/02/01 15:03:58;457460.00;1.52;788.62;93544.00;0.31;162.43;;;;;12.70;1.00;;;;;;2272357;61;1997;-89
2024/02/01 15:06:27;252757.00;0.84;436.69;87705.00;0.29;152.34;;;;;13.00;1.00;;;;;;2272418;61;1004;-87
2024/02/01 15:08:58;466035.00;1.55;803.37;114975.00;0.38;199.41;;;;;13.20;1.00;;;;;;2272379;61;1604;-88
2024/02/01 15:11:25;324909.00;1.08;560.74;91535.00;0.31;158.96;;;;;13.00;1.00;;;;;;2272460;61;1736;-87
2024/02/01 15:13:53;379107.00;1.26;653.89;87706.00;0.29;152.35;;;;;13.10;1.00;;;;;;2272565;61;1118;-88
2024/02/01 15:16:20;408208.00;1.36;703.92;86018.00;0.29;149.43;;;;;13.10;1.00;;;;;;2272266;61;1497;-87
2024/02/01 15:18:47;524979.00;1.75;904.84;87929.00;0.29;152.73;;;;;13.20;1.00;;;;;;2272186;61;1518;-87
2024/02/01 15:21:14;493983.00;1.65;851.47;84576.00;0.28;146.94;;;;;13.40;1.00;;;;;;2272321;61;1571;-87
2024/02/01 15:23:43;378627.00;1.26;653.07;86810.00;0.29;150.80;;;;;13.40;1.00;;;;;;2272399;61;2001;-87
2024/02/01 15:26:10;731019.00;2.44;1261.07;103051.00;0.34;178.84;;;;;13.60;1.00;;;;;;2272468;61;1062;-88
2024/02/01 15:28:39;384919.00;1.28;663.88;85854.00;0.29;149.15;;;;;13.70;1.00;;;;;;2272439;61;1114;-89
2024/02/01 15:31:10;325391.00;1.08;561.56;88925.00;0.30;154.45;;;;;13.90;1.00;;;;;;2272386;61;2437;-88
2024/02/01 15:33:38;537404.00;1.79;926.25;82751.00;0.28;143.79;;;;;14.10;1.00;;;;;;2272429;61;1326;-88
2024/02/01 15:36:06;510910.00;1.70;880.61;101114.00;0.34;175.49;;;;;14.30;1.00;;;;;;2272408;61;1766;-88
2024/02/01 15:38:33;497687.00;1.66;857.84;85936.00;0.29;149.29;;;;;14.50;1.00;;;;;;2272385;61;1605;-88
2024/02/01 15:43:32;601702.00;2.01;1037.16;78015.00;0.26;135.61;;;;;14.60;1.00;;;;;;2261803;61;1333;-88
2024/02/01 15:45:58;390294.00;1.30;673.12;98888.00;0.33;171.65;;;;;14.60;1.00;;;;;;2260338;61;2005;-88
2024/02/01 15:48:26;362711.00;1.21;625.71;90492.00;0.30;157.16;;;;;14.50;1.00;;;;;;2260249;61;1052;-87
2024/02/01 15:50:53;426984.00;1.42;736.20;89682.00;0.30;155.76;;;;;14.40;1.00;;;;;;2260339;61;2274;-88
2024/02/01 15:53:21;411017.00;1.37;708.75;86635.00;0.29;150.50;;;;;14.30;1.00;;;;;;2260334;61;1402;-87
2024/02/01 15:55:48;369979.00;1.23;638.20;93941.00;0.31;163.11;;;;;14.30;1.00;;;;;;2260367;61;1054;-87
2024/02/01 15:58:15;430516.00;1.44;742.27;80686.00;0.27;140.22;;;;;14.40;1.00;;;;;;2260267;61;1071;-88
2024/02/01 16:00:43;400607.00;1.34;690.85;106585.00;0.36;184.94;;;;;14.60;1.00;;;;;;2260202;61;1025;-88
2024/02/01 16:03:11;441457.00;1.47;761.09;75930.00;0.25;132.01;;;;;14.70;1.00;;;;;;2260302;61;1402;-88
2024/02/01 16:06:01;391514.00;1.31;675.22;88374.00;0.29;153.50;;;;;14.70;1.00;;;;;;2260194;61;1923;-88
2024/02/01 16:08:28;301015.00;1.00;519.66;0.00;0.00;0.62;;;;;14.70;1.00;;;;;;2260069;61;1108;-87
2024/02/01 16:11:00;434534.00;1.45;749.18;0.00;0.00;0.62;;;;;14.60;1.00;;;;;;2260071;61;1444;-86
2024/02/01 16:13:38;335498.00;1.12;578.94;0.00;0.00;0.62;;;;;14.40;1.00;;;;;;2310504;40;3573;-88
2024/02/01 16:16:10;301981.00;1.01;521.33;30514.00;0.10;53.47;;;;;14.30;1.00;;;;;;2272913;61;2026;-88
2024/02/01 16:18:38;185565.00;0.62;321.07;0.00;0.00;0.62;;;;;14.20;1.00;;;;;;2272232;61;1103;-88
2024/02/01 16:23:39;733477.00;2.44;1265.34;0.00;0.00;0.62;;;;;14.20;1.00;;;;;;2266046;61;1290;-89
2024/02/01 16:26:08;536447.00;1.79;924.60;0.00;0.00;0.62;;;;;14.20;1.00;;;;;;2264052;61;1927;-87
2024/02/01 16:28:38;482451.00;1.61;831.62;0.00;0.00;0.62;;;;;14.30;1.00;;;;;;2264096;61;1128;-89
2024/02/01 16:31:14;260311.00;0.87;449.68;0.00;0.00;0.62;;;;;14.30;1.00;;;;;;2263936;61;1583;-89
2024/02/01 16:33:45;293432.00;0.98;506.63;0.00;0.00;0.62;;;;;14.20;1.00;;;;;;2264180;61;1346;-88
2024/02/01 16:36:51;293298.00;0.98;506.40;0.00;0.00;0.62;;;;;14.10;1.00;;;;;;2264134;61;1038;-88
2024/02/01 16:39:20;101454.00;0.34;176.08;0.00;0.00;0.62;;;;;13.90;1.00;;;;;;2263951;61;949;-87
2024/02/01 16:41:48;118803.00;0.40;206.02;0.00;0.00;0.62;;;;;13.40;1.00;;;;;;2264158;61;1369;-88
2024/02/01 16:44:41;128004.00;0.43;221.89;0.00;0.00;0.62;;;;;13.60;1.00;;;;;;2264008;61;1990;-88
2024/02/01 16:47:25;173692.00;0.58;300.63;0.00;0.00;0.62;;;;;13.90;1.00;;;;;;2264023;61;1045;-89
2024/02/01 16:49:53;69960.00;0.23;121.69;0.00;0.00;0.62;;;;;13.70;1.00;;;;;;2267465;40;3587;-89
2024/02/01 16:52:44;33721.00;0.11;59.02;0.00;0.00;0.62;;;;;13.90;1.00;;;;;;2272059;61;1399;-88
2024/02/01 16:55:38;37215.00;0.12;65.07;0.00;0.00;0.62;;;;;14.10;1.00;;;;;;2272148;61;1059;-89
2024/02/01 16:58:06;127174.00;0.42;220.46;0.00;0.00;0.62;;;;;14.30;1.00;;;;;;2272013;61;944;-88
2024/02/01 17:00:35;26367.00;0.09;46.29;0.00;0.00;0.62;;;;;14.40;1.00;;;;;;2272106;61;1002;-87
2024/02/01 17:05:37;350534.00;1.17;604.78;40385.00;0.13;70.55;;;;;14.60;1.00;;;;;;2257827;61;1970;-87
2024/02/01 17:08:07;151740.00;0.51;262.81;0.00;0.00;0.62;;;;;14.50;1.00;;;;;;2269104;55;3765;-87
2024/02/01 17:10:50;56272.00;0.19;98.03;0.00;0.00;0.62;;;;;14.10;1.00;;;;;;2271799;61;1612;-90
2024/02/01 17:15:47;60736.00;0.20;105.75;0.00;0.00;0.62;;;;;13.90;1.00;;;;;;2262571;61;1321;-89
2024/02/01 17:18:15;493.00;0.00;1.47;0.00;0.00;0.62;;;;;14.10;1.00;;;;;;2260592;61;1045;-88
2024/02/01 17:20:44;6163.00;0.02;11.30;0.00;0.00;0.62;;;;;14.20;1.00;;;;;;2260669;61;1121;-88
2024/02/01 17:23:15;59127.00;0.20;102.97;0.00;0.00;0.62;;;;;14.10;1.00;;;;;;2259999;61;1268;-88